createdAt,value
2023-03-22T00:00:41.612Z,2.99
2023-03-22T00:03:20.709Z,3.00
2023-03-22T00:05:51.068Z,2.97
2023-03-22T00:08:21.026Z,2.94
2023-03-22T00:10:49.932Z,2.88
2023-03-22T00:13:19.852Z,2.86
2023-03-22T00:15:49.686Z,2.87
2023-03-22T00:18:20.366Z,2.89
2023-03-22T00:20:51.415Z,2.89
2023-03-22T00:23:20.843Z,2.89
2023-03-22T00:25:50.515Z,2.87
2023-03-22T00:28:20.265Z,2.87
2023-03-22T00:30:54.047Z,2.89
2023-03-22T00:33:23.303Z,2.92
2023-03-22T00:35:55.253Z,2.95
2023-03-22T00:38:39.487Z,2.94
2023-03-22T00:41:16.502Z,2.93
2023-03-22T00:43:47.608Z,2.90
2023-03-22T00:46:18.622Z,2.86
2023-03-22T00:48:48.652Z,2.82
2023-03-22T00:51:18.655Z,2.79
2023-03-22T00:53:51.432Z,2.74
2023-03-22T00:56:23.478Z,2.69
2023-03-22T00:59:00.833Z,2.66
2023-03-22T01:01:33.610Z,2.61
2023-03-22T01:04:06.856Z,2.55
2023-03-22T01:06:38.147Z,2.51
2023-03-22T01:09:15.693Z,2.46
2023-03-22T01:11:47.921Z,2.42
2023-03-22T01:14:20.796Z,2.39
2023-03-22T01:16:54.559Z,2.37
2023-03-22T01:19:25.674Z,2.36
2023-03-22T01:21:57.000Z,2.35
2023-03-22T01:24:28.056Z,2.35
2023-03-22T01:26:58.685Z,2.36
2023-03-22T01:29:29.810Z,2.37
2023-03-22T01:31:59.661Z,2.40
2023-03-22T01:34:29.443Z,2.42
2023-03-22T01:37:01.464Z,2.40
2023-03-22T01:39:33.240Z,2.36
2023-03-22T01:42:15.026Z,2.33
2023-03-22T01:45:10.250Z,2.30
2023-03-22T01:47:57.491Z,2.29
2023-03-22T01:50:29.815Z,2.27
2023-03-22T01:53:07.162Z,2.24
2023-03-22T01:55:43.365Z,2.23
2023-03-22T01:58:21.768Z,2.21
2023-03-22T02:00:57.414Z,2.19
2023-03-22T02:03:59.615Z,2.17
2023-03-22T02:06:33.263Z,2.17
2023-03-22T02:09:10.423Z,2.14
2023-03-22T02:11:50.029Z,2.08
2023-03-22T02:14:40.443Z,2.02
2023-03-22T02:17:56.178Z,1.97
2023-03-22T02:21:00.725Z,1.92
2023-03-22T02:23:36.255Z,1.87
2023-03-22T02:26:22.767Z,1.79
2023-03-22T02:29:00.994Z,1.70
2023-03-22T02:31:42.473Z,1.63
2023-03-22T02:34:20.316Z,1.56
2023-03-22T02:37:06.272Z,1.47
2023-03-22T02:39:37.786Z,1.40
2023-03-22T02:42:10.006Z,1.36
2023-03-22T02:44:48.442Z,1.35
2023-03-22T02:47:25.507Z,1.37
2023-03-22T02:50:00.045Z,1.40
2023-03-22T02:52:42.406Z,1.44
2023-03-22T02:55:28.656Z,1.49
2023-03-22T02:58:22.977Z,1.48
2023-03-22T03:00:56.071Z,1.46
2023-03-22T03:03:32.551Z,1.41
2023-03-22T03:06:09.460Z,1.38
2023-03-22T03:08:42.282Z,1.34
2023-03-22T03:11:14.837Z,1.29
2023-03-22T03:13:48.360Z,1.26
2023-03-22T03:16:21.939Z,1.24
2023-03-22T03:19:11.183Z,1.23
2023-03-22T03:21:43.814Z,1.22
2023-03-22T03:24:23.024Z,1.19
2023-03-22T03:27:11.518Z,1.18
2023-03-22T03:30:00.519Z,1.18
2023-03-22T03:32:43.509Z,1.18
2023-03-22T03:35:25.411Z,1.18
2023-03-22T03:38:03.616Z,1.17
2023-03-22T03:40:35.586Z,1.19
2023-03-22T03:43:09.818Z,1.18
2023-03-22T03:45:39.771Z,1.18
2023-03-22T03:48:13.050Z,1.17
2023-03-22T03:50:42.853Z,1.15
2023-03-22T03:53:13.540Z,1.13
2023-03-22T03:55:43.948Z,1.13
2023-03-22T03:58:17.261Z,1.14
2023-03-22T04:00:48.740Z,1.12
2023-03-22T04:03:33.644Z,1.12
2023-03-22T04:06:04.207Z,1.09
2023-03-22T04:08:37.519Z,1.04
2023-03-22T04:11:07.404Z,0.99
2023-03-22T04:13:40.590Z,0.95
2023-03-22T04:16:13.483Z,0.96
2023-03-22T04:18:43.334Z,0.96
2023-03-22T04:21:16.998Z,0.98
2023-03-22T04:23:55.901Z,1.00
2023-03-22T04:26:27.500Z,0.98
2023-03-22T04:29:09.760Z,0.94
2023-03-22T04:31:41.547Z,0.91
2023-03-22T04:34:22.419Z,0.88
2023-03-22T04:36:56.262Z,0.88
2023-03-22T04:39:30.727Z,0.88
2023-03-22T04:42:17.739Z,0.86
2023-03-22T04:44:47.353Z,0.85
2023-03-22T04:47:16.737Z,0.81
2023-03-22T04:49:46.274Z,0.78
2023-03-22T04:52:18.028Z,0.77
2023-03-22T04:54:54.381Z,0.73
2023-03-22T04:57:25.004Z,0.71
2023-03-22T04:59:54.668Z,0.71
2023-03-22T05:02:23.329Z,0.72
2023-03-22T05:04:52.389Z,0.72
2023-03-22T05:07:32.957Z,0.71
2023-03-22T05:10:03.186Z,0.73
2023-03-22T05:12:32.391Z,0.75
2023-03-22T05:15:16.524Z,0.80
2023-03-22T05:17:45.719Z,0.86
2023-03-22T05:20:16.822Z,0.89
2023-03-22T05:22:50.872Z,0.91
2023-03-22T05:25:20.888Z,0.93
2023-03-22T05:27:51.014Z,0.95
2023-03-22T05:30:43.545Z,0.98
2023-03-22T05:33:23.305Z,1.04
2023-03-22T05:35:54.995Z,1.07
2023-03-22T05:38:26.120Z,1.10
2023-03-22T05:40:56.424Z,1.16
2023-03-22T05:43:26.043Z,1.24
2023-03-22T05:45:55.606Z,1.31
2023-03-22T05:48:54.113Z,1.36
2023-03-22T05:51:26.292Z,1.42
2023-03-22T05:53:55.581Z,1.51
2023-03-22T05:56:29.382Z,1.65
2023-03-22T05:59:05.351Z,1.81
2023-03-22T06:01:34.057Z,1.91
2023-03-22T06:04:14.007Z,1.92
2023-03-22T06:07:03.055Z,1.90
2023-03-22T06:09:50.587Z,1.80
2023-03-22T06:12:28.262Z,1.79
2023-03-22T06:15:04.234Z,1.85
2023-03-22T06:17:47.970Z,2.02
2023-03-22T06:20:20.307Z,2.22
2023-03-22T06:22:54.356Z,2.33
2023-03-22T06:25:24.607Z,2.38
2023-03-22T06:27:53.681Z,2.45
2023-03-22T06:30:23.101Z,2.55
2023-03-22T06:33:11.071Z,2.71
2023-03-22T06:35:41.945Z,2.80
2023-03-22T06:38:12.477Z,2.84
2023-03-22T06:40:42.225Z,2.95
2023-03-22T06:43:11.063Z,3.06
2023-03-22T06:45:41.527Z,3.19
2023-03-22T06:48:10.853Z,3.27
2023-03-22T06:50:49.617Z,3.36
2023-03-22T06:53:27.742Z,3.51
2023-03-22T06:55:56.811Z,3.64
2023-03-22T06:58:26.551Z,3.77
2023-03-22T07:00:57.032Z,3.93
2023-03-22T07:03:25.839Z,4.07
2023-03-22T07:06:06.291Z,4.24
2023-03-22T07:08:36.216Z,4.42
2023-03-22T07:11:05.525Z,4.59
2023-03-22T07:13:35.129Z,4.80
2023-03-22T07:16:06.825Z,5.06
2023-03-22T07:18:49.184Z,5.25
2023-03-22T07:21:18.275Z,5.44
2023-03-22T07:23:50.821Z,5.91
2023-03-22T07:26:20.868Z,6.50
2023-03-22T07:28:50.782Z,6.89
2023-03-22T07:31:20.803Z,7.16
2023-03-22T07:33:55.317Z,7.51
2023-03-22T07:36:26.014Z,7.76
2023-03-22T07:38:55.476Z,7.79
2023-03-22T07:41:44.328Z,8.18
2023-03-22T07:44:22.527Z,8.57
2023-03-22T07:47:10.100Z,8.77
2023-03-22T07:50:01.715Z,8.87
2023-03-22T07:52:34.512Z,9.18
2023-03-22T07:55:03.843Z,9.46
2023-03-22T07:57:32.773Z,9.80
2023-03-22T08:00:01.956Z,10.02
2023-03-22T08:02:46.559Z,10.03
2023-03-22T08:05:33.829Z,10.18
2023-03-22T08:08:04.536Z,10.45
2023-03-22T08:10:33.666Z,10.70
2023-03-22T08:13:03.183Z,10.84
2023-03-22T08:15:32.057Z,11.02
2023-03-22T08:18:01.148Z,11.19
2023-03-22T08:20:34.451Z,11.49
2023-03-22T08:23:11.840Z,11.65
2023-03-22T08:26:19.431Z,12.07
2023-03-22T08:28:48.332Z,12.23
2023-03-22T08:31:17.801Z,12.37
2023-03-22T08:33:47.757Z,12.51
2023-03-22T08:36:18.298Z,12.64
2023-03-22T08:38:51.669Z,13.17
2023-03-22T08:41:24.707Z,13.74
2023-03-22T08:43:53.448Z,14.02
2023-03-22T08:46:22.451Z,14.44
2023-03-22T08:48:53.065Z,14.82
2023-03-22T08:51:28.648Z,15.09
2023-03-22T08:54:14.088Z,15.68
2023-03-22T08:56:55.475Z,16.56
2023-03-22T08:59:52.617Z,17.30
2023-03-22T09:02:39.960Z,17.94
2023-03-22T09:05:09.868Z,18.81
2023-03-22T09:07:39.468Z,19.37
2023-03-22T09:10:17.688Z,20.39
2023-03-22T09:12:48.940Z,20.88
2023-03-22T09:15:18.238Z,20.90
2023-03-22T09:17:49.982Z,21.15
2023-03-22T09:20:19.190Z,21.16
2023-03-22T09:22:48.167Z,20.87
2023-03-22T09:25:17.793Z,20.62
2023-03-22T09:27:48.616Z,20.73
2023-03-22T09:30:17.813Z,20.98
2023-03-22T09:32:46.399Z,21.17
2023-03-22T09:35:16.811Z,21.60
2023-03-22T09:38:07.006Z,21.68
2023-03-22T09:40:37.952Z,21.97
2023-03-22T09:43:07.986Z,21.99
2023-03-22T09:45:42.168Z,22.11
2023-03-22T09:48:22.488Z,21.74
2023-03-22T09:50:52.961Z,21.84
2023-03-22T09:53:23.805Z,22.22
2023-03-22T09:55:55.353Z,22.92
2023-03-22T09:58:26.592Z,23.24
2023-03-22T10:00:55.153Z,23.23
2023-03-22T10:03:29.805Z,23.20
2023-03-22T10:06:18.773Z,23.64
2023-03-22T10:08:59.944Z,23.79
2023-03-22T10:11:34.467Z,23.76
2023-03-22T10:14:21.397Z,23.59
2023-03-22T10:16:51.503Z,23.21
2023-03-22T10:19:23.993Z,23.08
2023-03-22T10:21:55.009Z,23.05
2023-03-22T10:24:29.118Z,22.97
2023-03-22T10:26:58.151Z,22.59
2023-03-22T10:29:27.539Z,22.47
2023-03-22T10:31:57.221Z,22.39
2023-03-22T10:34:36.977Z,22.27
2023-03-22T10:37:07.893Z,22.35
2023-03-22T10:39:39.981Z,22.20
2023-03-22T10:42:14.925Z,21.92
2023-03-22T10:44:48.835Z,21.96
2023-03-22T10:47:19.963Z,21.71
2023-03-22T10:49:54.656Z,22.26
2023-03-22T10:52:35.061Z,22.52
2023-03-22T10:55:05.097Z,22.80
2023-03-22T10:57:34.365Z,23.07
2023-03-22T11:00:09.411Z,23.19
2023-03-22T11:02:45.170Z,23.27
2023-03-22T11:05:21.210Z,23.00
2023-03-22T11:07:49.796Z,23.21
2023-03-22T11:10:25.241Z,23.15
2023-03-22T11:12:55.559Z,22.99
2023-03-22T11:15:26.904Z,22.97
2023-03-22T11:18:00.646Z,23.01
2023-03-22T11:20:37.739Z,22.89
2023-03-22T11:23:07.311Z,23.82
2023-03-22T11:25:39.053Z,23.37
2023-03-22T11:28:10.815Z,21.60
2023-03-22T11:30:39.788Z,20.11
2023-03-22T11:33:08.977Z,19.94
2023-03-22T11:35:39.131Z,20.57
2023-03-22T11:38:22.677Z,20.57
2023-03-22T11:41:02.151Z,21.46
2023-03-22T11:43:36.934Z,21.66
2023-03-22T11:46:07.995Z,21.27
2023-03-22T11:48:37.315Z,20.68
2023-03-22T11:51:07.967Z,19.93
2023-03-22T11:53:38.946Z,19.72
2023-03-22T11:56:09.598Z,19.60
2023-03-22T11:58:38.158Z,19.48
2023-03-22T12:01:10.529Z,19.10
2023-03-22T12:03:41.309Z,19.01
2023-03-22T12:06:21.243Z,19.38
2023-03-22T12:08:54.297Z,19.49
2023-03-22T12:11:36.654Z,19.50
2023-03-22T12:14:09.917Z,19.45
2023-03-22T12:16:47.034Z,19.85
2023-03-22T12:19:24.372Z,19.96
2023-03-22T12:21:53.174Z,19.73
2023-03-22T12:24:31.684Z,19.24
2023-03-22T12:27:05.176Z,18.94
2023-03-22T12:29:34.276Z,18.81
2023-03-22T12:32:07.450Z,18.80
2023-03-22T12:34:41.681Z,18.69
2023-03-22T12:37:15.170Z,18.46
2023-03-22T12:39:47.553Z,18.19
2023-03-22T12:42:22.320Z,17.64
2023-03-22T12:45:04.137Z,17.43
2023-03-22T12:47:42.108Z,17.33
2023-03-22T12:50:20.175Z,17.67
2023-03-22T12:52:50.294Z,18.64
2023-03-22T12:55:31.059Z,19.63
2023-03-22T12:58:00.569Z,20.51
2023-03-22T13:00:45.224Z,20.99
2023-03-22T13:03:16.793Z,21.92
2023-03-22T13:05:46.385Z,22.72
2023-03-22T13:08:24.771Z,23.29
2023-03-22T13:11:06.308Z,23.81
2023-03-22T13:13:41.535Z,24.48
2023-03-22T13:16:10.135Z,24.54
2023-03-22T13:18:39.105Z,24.71
2023-03-22T13:21:30.233Z,24.65
2023-03-22T13:24:06.730Z,25.15
2023-03-22T13:26:58.521Z,25.36
2023-03-22T13:29:33.552Z,25.15
2023-03-22T13:32:06.487Z,24.73
2023-03-22T13:34:38.086Z,24.50
2023-03-22T13:37:31.994Z,24.50
2023-03-22T13:40:02.470Z,24.60
2023-03-22T13:42:37.005Z,24.56
2023-03-22T13:45:09.280Z,24.52
2023-03-22T13:47:43.985Z,24.39
2023-03-22T13:50:13.185Z,23.99
2023-03-22T13:52:44.246Z,23.00
2023-03-22T13:55:37.247Z,21.87
2023-03-22T13:58:09.371Z,21.72
2023-03-22T14:00:41.074Z,21.67
2023-03-22T14:03:30.671Z,21.86
2023-03-22T14:06:05.037Z,22.01
2023-03-22T14:08:35.134Z,22.09
2023-03-22T14:11:10.584Z,21.90
2023-03-22T14:13:48.476Z,21.85
2023-03-22T14:16:29.422Z,21.85
2023-03-22T14:18:59.162Z,21.73
2023-03-22T14:21:37.583Z,21.82
